»·PEaware :: N171MA KOAK-KCCB

N171MA :: KOAK-KCCB

FLIGHT INFORMATION

Flight Status: Arrived
Operator: Privately registered:
United States
More flights under this callsign
Pilot: Tim M. (868)
Aircraft: SOCATA TBM-900
(TBM9)
More flights by this aircraft type
Origin: KOAK Metro Oakland Intl
United States
Destination: KCCB Cable
United States
More flights between these airports :: More routes between these airports
Route: +NIMI5 PXN EHF BOILE
File this flight plan on PilotEdge
Remarks:
Altitude:
(Current/Filed)
31,000ft
Speed:
(Current/Filed)
314kts
Departed: 01-Oct-20 07:35 PM
Arrived: 01-Oct-20 08:56 PM
Distance/Time
Traveled:
309nm/1:21
Distance/Time
To Go:
Arrived

Flight Plot

Page will automatically refresh every two minutes.

Flight plan parsing failed; only flown route is shown


Map Options




Map Legend


Flown Route
Filed Route
Departure Airport
Arrival Airport
Navaid (VOR, NDB)
Fix

Horizontal Profiles

Position Reports

Time Latitude Longitude Heading Altitude Ground
Speed
01-Oct-20 19:04 37.730560 -122.213135 307 7ft 0kts
01-Oct-20 19:05 37.730560 -122.213135 307 7ft 0kts
01-Oct-20 19:06 37.730560 -122.213135 307 7ft 0kts
01-Oct-20 19:07 37.730560 -122.213135 307 7ft 0kts
01-Oct-20 19:08 37.730560 -122.213135 307 7ft 0kts
01-Oct-20 19:09 37.730560 -122.213135 307 7ft 0kts
01-Oct-20 19:10 37.730560 -122.213135 307 7ft 0kts
01-Oct-20 19:11 37.730560 -122.213135 307 7ft 0kts
01-Oct-20 19:12 37.730560 -122.213135 307 7ft 0kts
01-Oct-20 19:13 37.730560 -122.213135 307 7ft 0kts
01-Oct-20 19:14 37.730560 -122.213135 307 7ft 0kts
01-Oct-20 19:15 37.730560 -122.213135 307 7ft 0kts
01-Oct-20 19:15 37.730560 -122.213135 307 7ft 0kts
01-Oct-20 19:16 37.730560 -122.213135 307 7ft 0kts
01-Oct-20 19:18 37.730560 -122.213135 307 7ft 0kts
01-Oct-20 19:24 37.730560 -122.213135 307 7ft 0kts
01-Oct-20 19:25 37.730560 -122.213135 307 7ft 0kts
01-Oct-20 19:26 37.730560 -122.213135 307 7ft 0kts
01-Oct-20 19:27 37.730560 -122.213135 307 7ft 0kts
01-Oct-20 19:28 37.730560 -122.213135 307 7ft 0kts
01-Oct-20 19:29 37.730560 -122.213135 307 7ft 0kts
01-Oct-20 19:30 37.729376 -122.213879 125 7ft 11kts
01-Oct-20 19:31 37.727262 -122.209058 112 8ft 14kts
01-Oct-20 19:32 37.726373 -122.206278 111 8ft 10kts
01-Oct-20 19:33 37.725623 -122.204461 168 8ft 0kts
01-Oct-20 19:34 37.731096 -122.224257 293 558ft 130kts
01-Oct-20 19:35 37.764379 -122.253202 326 2945ft 152kts
01-Oct-20 19:36 37.801121 -122.282006 326 5195ft 163kts
01-Oct-20 19:37 37.823734 -122.324724 236 7550ft 177kts
01-Oct-20 19:38 37.776450 -122.328910 173 9980ft 181kts
01-Oct-20 19:39 37.731064 -122.307962 124 12306ft 178kts
01-Oct-20 19:40 37.700869 -122.258742 130 14656ft 183kts
01-Oct-20 19:41 37.668101 -122.208175 131 16874ft 190kts
01-Oct-20 19:42 37.634045 -122.155991 131 19001ft 198kts
01-Oct-20 19:43 37.598764 -122.102027 131 21131ft 204kts
01-Oct-20 19:44 37.562359 -122.046419 131 23234ft 210kts
01-Oct-20 19:45 37.524985 -121.989461 131 25183ft 215kts
01-Oct-20 19:46 37.486096 -121.930278 130 27033ft 224kts
01-Oct-20 19:47 37.445999 -121.869369 130 28937ft 231kts
01-Oct-20 19:48 37.404450 -121.806359 130 30695ft 238kts
01-Oct-20 19:49 37.358505 -121.736800 130 31027ft 281kts
01-Oct-20 19:50 37.306833 -121.658737 129 31012ft 297kts
01-Oct-20 19:51 37.253470 -121.578346 129 31010ft 300kts
01-Oct-20 19:52 37.199941 -121.497914 129 31007ft 301kts
01-Oct-20 19:53 37.146172 -121.417318 129 31007ft 301kts
01-Oct-20 19:54 37.092379 -121.336886 130 31008ft 301kts
01-Oct-20 19:55 37.038669 -121.256768 130 31008ft 301kts
01-Oct-20 19:56 36.984849 -121.176676 130 31008ft 301kts
01-Oct-20 19:57 36.930813 -121.096458 130 31007ft 300kts
01-Oct-20 19:58 36.876875 -121.016582 130 31010ft 300kts
01-Oct-20 19:59 36.822991 -120.936972 130 31010ft 300kts
01-Oct-20 20:00 36.769040 -120.857457 130 31009ft 300kts
01-Oct-20 20:01 36.714885 -120.777921 131 31008ft 300kts
01-Oct-20 20:02 36.659463 -120.700312 131 31009ft 300kts
01-Oct-20 20:03 36.603864 -120.622688 131 31009ft 300kts
01-Oct-20 20:04 36.548271 -120.545254 131 31008ft 300kts
01-Oct-20 20:05 36.492693 -120.468021 131 31008ft 300kts
01-Oct-20 20:06 36.437054 -120.390881 131 31007ft 300kts
01-Oct-20 20:07 36.381382 -120.313878 132 31009ft 300kts
01-Oct-20 20:08 36.325549 -120.236827 132 31009ft 300kts
01-Oct-20 20:09 36.269706 -120.159943 132 31006ft 300kts
01-Oct-20 20:10 36.213761 -120.083097 132 31002ft 300kts
01-Oct-20 20:11 36.157807 -120.006414 132 30999ft 300kts
01-Oct-20 20:12 36.101773 -119.929799 132 30998ft 300kts
01-Oct-20 20:13 36.045917 -119.853604 132 30998ft 300kts
01-Oct-20 20:14 35.989924 -119.777394 132 30998ft 300kts
01-Oct-20 20:15 35.933776 -119.701147 132 31001ft 300kts
01-Oct-20 20:16 35.878140 -119.625773 132 31006ft 300kts
01-Oct-20 20:17 35.821770 -119.549569 132 31009ft 301kts
01-Oct-20 20:18 35.765399 -119.473538 132 31009ft 301kts
01-Oct-20 20:19 35.708714 -119.397255 132 31008ft 301kts
01-Oct-20 20:20 35.652224 -119.321412 132 31010ft 302kts
01-Oct-20 20:21 35.595420 -119.245318 132 31009ft 302kts
01-Oct-20 20:22 35.538604 -119.169373 132 31009ft 302kts
01-Oct-20 20:23 35.480871 -119.093948 139 29990ft 303kts
01-Oct-20 20:24 35.416710 -119.027710 139 28659ft 300kts
01-Oct-20 20:25 35.352888 -118.962400 139 27337ft 299kts
01-Oct-20 20:26 35.289019 -118.897188 139 26015ft 298kts
01-Oct-20 20:27 35.226491 -118.833482 139 24721ft 298kts
01-Oct-20 20:28 35.162903 -118.768847 139 24248ft 292kts
01-Oct-20 20:29 35.099989 -118.705019 139 24246ft 296kts
01-Oct-20 20:30 35.036599 -118.640842 139 24245ft 295kts
01-Oct-20 20:31 34.973752 -118.577351 139 24239ft 284kts
01-Oct-20 20:32 34.915300 -118.518415 139 24241ft 267kts
01-Oct-20 20:33 34.858710 -118.461467 139 24233ft 263kts
01-Oct-20 20:34 34.802386 -118.404884 139 24179ft 262kts
01-Oct-20 20:35 34.746057 -118.348400 140 24124ft 262kts
01-Oct-20 20:36 34.688676 -118.290956 140 23236ft 281kts
01-Oct-20 20:37 34.626714 -118.229029 139 21263ft 294kts
01-Oct-20 20:38 34.563477 -118.165976 139 19265ft 295kts
01-Oct-20 20:39 34.500098 -118.102943 139 17260ft 294kts
01-Oct-20 20:40 34.437963 -118.041265 139 15259ft 281kts
01-Oct-20 20:41 34.381172 -117.980721 136 13981ft 251kts
01-Oct-20 20:42 34.329236 -117.933110 174 13841ft 242kts
01-Oct-20 20:43 34.259413 -117.953582 191 12385ft 267kts
01-Oct-20 20:44 34.186888 -117.976409 191 10885ft 270kts
01-Oct-20 20:45 34.114362 -117.997100 191 9378ft 259kts
01-Oct-20 20:46 34.047350 -118.014217 191 7860ft 242kts
01-Oct-20 20:47 34.015035 -117.967065 72 6324ft 236kts
01-Oct-20 20:48 34.039014 -117.896961 65 4969ft 206kts
01-Oct-20 20:49 34.055625 -117.841040 70 4923ft 166kts
01-Oct-20 20:50 34.067755 -117.788640 73 4384ft 156kts
01-Oct-20 20:51 34.079715 -117.737304 70 3670ft 157kts
01-Oct-20 20:52 34.094041 -117.690835 71 2636ft 124kts
01-Oct-20 20:53 34.105918 -117.653496 57 2896ft 100kts
01-Oct-20 20:54 34.117506 -117.667583 251 1712ft 84kts
01-Oct-20 20:56 34.111507 -117.687685 247 1445ft 5kts
01-Oct-20 20:57 34.111949 -117.685383 71 1445ft 8kts
01-Oct-20 20:58 34.111910 -117.684439 47 1445ft 0kts
01-Oct-20 20:59 34.111910 -117.684439 47 1445ft 0kts
01-Oct-20 21:00 34.111909 -117.684439 47 1445ft 0kts

Navigation Log

Ident Type
Flight plan parsing failed, navigation log unavailable